Track Сидоров Степан

Time Latitude Longitude Accuracy (66% radius in meters) Altitude (meters) Speed (km/hour) Bearing (degrees) Battery (%) GPS flag
04:01:34 51.898302 107.666347 7.9000000953674 699.7 2.7944269180298 349.75 89 1 delete
03:59:35 51.897723 107.668152 8 714.1 0 0 91 1 delete
03:57:35 51.899105 107.667963 7.8000001907349 716.3 0 0 91 1 delete
03:56:35 51.899427 107.668352 7.9000000953674 716.4 0.67583030462265 296.14001464844 91 1 delete
03:52:35 51.900462 107.668042 9.1999998092651 704.6 0 0 91 1 delete
03:50:35 51.900040 107.666832 7.8000001907349 722.7 0 0 91 1 delete
03:49:34 51.899860 107.666018 7.8000001907349 722.8 0 0 91 1 delete
03:48:35 51.899878 107.664958 7.8000001907349 723 0 0 91 1 delete
03:47:35 51.900318 107.663967 7.8000001907349 723.3 0.50031000375748 223.08000183105 91 1 delete
03:47:33 51.900427 107.663692 7.9000000953674 723.6 0 0 91 1 delete
03:44:36 51.900802 107.664193 7.8000001907349 723.9 0 0 91 1 delete
03:43:35 51.901387 107.663515 7.8000001907349 723.9 0 0 91 1 delete
03:40:36 51.903060 107.663958 7.9000000953674 724.4 0 0 92 1 delete
03:38:35 51.902888 107.664618 10.39999961853 722 0 0 92 1 delete
03:28:13 51.901512 107.661352 7.6999998092651 707.6 0 0 92 1 delete
03:27:56 51.901433 107.661272 7.8000001907349 701.9 0 0 92 1 delete
03:27:53 51.901335 107.661297 8 717.5 0 0 92 1 delete
03:26:35 51.901242 107.660990 7.8000001907349 716.9 0.86679220199585 140.74000549316 92 1 delete
03:22:35 51.902192 107.658292 7.9000000953674 717.2 0 0 92 1 delete
03:21:35 51.902603 107.657087 7.6999998092651 717.2 0 0 92 1 delete
03:18:35 51.902700 107.657190 8.8999996185303 713.1 0 0 93 1 delete
03:15:35 51.901758 107.657323 9.1999998092651 729.9 0 0 93 1 delete
03:12:35 51.900863 107.656510 8.3999996185303 728.2 0 0 93 1 delete
03:11:34 51.900573 107.656603 7.4000000953674 728.3 0 0 93 1 delete
03:10:34 51.900735 107.657567 7.0999999046326 733.2 0 0 93 1 delete
03:07:35 51.899433 107.657888 7.8000001907349 691.3 0 0 93 1 delete
03:06:34 51.898672 107.657982 7.5999999046326 690.9 0 0 93 1 delete
03:05:35 51.898432 107.657912 7.4000000953674 689.3 0 0 93 1 delete
03:04:34 51.898727 107.659140 7.5 689.4 0 0 93 1 delete
03:03:34 51.899112 107.659557 7.8000001907349 689.3 0 0 93 1 delete
02:58:34 51.899782 107.662302 7.4000000953674 690.7 0 0 94 1 delete
02:49:34 51.897735 107.660945 13.10000038147 673.6 0 0 94 1 delete
02:46:31 51.896800 107.661692 7.9000000953674 671.4 0 0 94 1 delete
02:45:35 51.896342 107.662372 7.9000000953674 671.4 0 0 94 1 delete